Terminal Aerodrome Forecast
Issued by NWS Houston/Galveston, TX

Home | Current Version | Previous Version | Text Only | Print | Product List | Glossary On
Versions: 1 2 3 4 5 6 7 8 9 10 11 12 13 14 15 16 17 18 19 20 21 22 23 24 25 26 27 28 29 30 31 32 33 34 35 36 37 38 39 40 41
000
FTUS44 KHGX 051405 AAB
TAFCLL
TAF AMD
KCLL 051405Z 0514/0612 17004KT P6SM SCT004 BKN015
      TEMPO 0514/0515 BKN004
     FM051530 18006KT P6SM SCT015 SCT030
     FM052000 18009KT P6SM VCSH BKN040
     FM060000 17006KT P6SM SKC
     FM060900 VRB02KT 6SM BR SCT250=

USA.gov is the U.S. government's official web portal to all federal, state and local government web resources and services.